• Join FlightAware (Why Join?)
  • Login
  • US Flag 
05:07PM EDT


 

Airport Tracker/Info


-or-


 

Live Flight TrackerFlight Track Log ✈ AWI3688 ✈ 08-May-2013 ✈ KPHL - KALB

Flight Track Log - Related Links

Times and Time Zones

All times are in EDT time to prevent confusion due to time zone crossing. See the AWI3688 flight status page for this flight to view local times or setup timezone preferences in your user account.

Time Position Orientation Groundspeed Altitude Reporting Facility
EDT Latitude Longitude Course Direction KTS MPH feet Rate Location/Type
01:57PM 39.8833 -75.2167 45° Northeast 162 186 700  Level Philadelphia TRACON
01:57PM 39.8833 -75.2000 90° East 172 198 1,700 2,880 Climbing Philadelphia TRACON
01:58PM 39.8667 -75.1333 108° East 204 235 4,500 2,940 Climbing Philadelphia TRACON
01:59PM 39.8500 -75.0500 105° East 220 253 7,900 2,700 Climbing Philadelphia TRACON
02:00PM 39.9525 -74.5475 37° Northeast  Level FlightAware Approximate
02:00PM 39.8333 -74.9667 105° East 257 296 10,000  Level Philadelphia TRACON
02:01PM 40.0727 -74.4212 57° Northeast  Level FlightAware Approximate
02:02PM 40.1974 -74.2980 45° Northeast  Level FlightAware Approximate
02:02PM 39.8142 -74.7167 96° East 331 381 13,800  Level New York Center
02:03PM 39.8900 -74.6289 42° Northeast 320 368 15,700 1,860 Climbing New York Center
02:04PM 39.9742 -74.5386 39° Northeast 344 396 17,600 1,560 Climbing New York Center
02:05PM 40.0558 -74.4644 35° Northeast 373 429 18,900 1,320 Climbing New York Center
02:06PM 40.1528 -74.3611 39° Northeast 392 451 20,300 1,320 Climbing New York Center
02:07PM 40.2472 -74.2681 37° Northeast 406 467 21,600 1,260 Climbing New York Center
02:08PM 40.3417 -74.1722 38° Northeast 418 481 22,900 1,200 Climbing New York Center
02:09PM 40.4383 -74.0786 36° Northeast 428 493 24,100 1,020 Climbing New York Center
02:10PM 40.5467 -74.0047 27° Northeast 428 493 25,000 840 Climbing New York Center
02:11PM 40.6608 -73.9364 24° Northeast 434 499 25,800 480 Climbing New York Center
02:12PM 40.7772 -73.8678 24° Northeast 445 512 26,000 -360 Climbing New York Center
02:15PM 40.9811 -73.6222 42° Northeast 464 534 24,700 -720 Descending Boston Center
02:16PM 41.0697 -73.5303 38° Northeast 459 528 23,800 -960 Descending Boston Center
02:17PM 41.2033 -73.4911 12° North 421 484 22,800 -1,140 Descending Boston Center
02:18PM 41.3222 -73.4986 357° North 421 484 21,600 -1,620 Descending Boston Center
02:19PM 41.4347 -73.5006 359° North 415 478 19,600 -1,800 Descending Boston Center
02:20PM 41.5431 -73.5081 357° North 395 455 18,000 -1,200 Descending Boston Center
02:21PM 41.6367 -73.5122 358° North 374 430 17,200 -1,200 Descending Boston Center
02:22PM 41.7533 -73.5142 359° North 374 430 15,600 -1,500 Descending Boston Center
02:23PM 41.8431 -73.5158 359° North 367 422 14,200 -1,560 Descending Boston Center
02:23PM 41.9264 -73.5200 358° North 351 404 12,900 -1,620 Descending Boston Center
02:24PM 41.9492 -73.5203 359° North 349 402 12,600 -1,500 Descending Boston Center
02:25PM 42.0514 -73.5250 358° North 349 402 11,000 -840 Descending Boston Center
02:26PM 42.1431 -73.5208 North 349 402 11,000  Level Boston Center
02:27PM 42.2389 -73.5339 354° North 349 402 11,000 -60 Level Boston Center
02:28PM 42.3200 -73.5464 353° North 349 402 10,900 -1,020 Descending Boston Center
02:29PM 42.4406 -73.5683 352° North 318 366 8,900 -1,680 Descending Boston Center
02:30PM 42.5217 -73.5839 352° North 287 330 7,400 -1,500 Descending Boston Center
02:31PM 42.5967 -73.6019 350° North 274 315 5,900 -1,500 Descending Boston Center
02:32PM 42.6736 -73.6261 347° North 260 299 4,200 -1,380 Descending Boston Center
02:33PM 42.7483 -73.6558 344° North 253 291 3,000 -780 Descending Boston Center
02:34PM 42.7981 -73.6767 343° North 184 212 2,800 -240 Descending Boston Center